Time;durP1;ratioP1;P1;durP2;ratioP2;P2;SDS_P1;SDS_P2;PMS_P1;PMS_P2;Temp;Humidity;BMP_temperature;BMP_pressure;BME280_temperature;BME280_humidity;BME280_pressure;Samples;Min_cycle;Max_cycle;Signal;HPM_P1;HPM_P2
2021/07/07 00:01:46;;;;;;;13.15;8.45;;;;;;;;;;5022230;28;20025;-68
2021/07/07 00:04:12;;;;;;;10.25;8.68;;;;;;;;;;5020773;28;20061;-66
2021/07/07 00:06:38;;;;;;;13.25;8.18;;;;;;;;;;5016925;28;20084;-70
2021/07/07 00:09:04;;;;;;;10.35;8.30;;;;;;;;;;5015469;28;20113;-69
2021/07/07 00:11:30;;;;;;;11.40;8.50;;;;;;;;;;5019575;28;20026;-70
2021/07/07 00:13:56;;;;;;;11.55;8.25;;;;;;;;;;5014631;28;20033;-68
2021/07/07 00:16:23;;;;;;;10.23;8.80;;;;;;;;;;5018503;28;20038;-68
2021/07/07 00:18:49;;;;;;;11.25;8.55;;;;;;;;;;5017084;28;20400;-67
2021/07/07 00:21:15;;;;;;;10.57;8.35;;;;;;;;;;5018749;28;20033;-70
2021/07/07 00:23:41;;;;;;;9.80;8.75;;;;;;;;;;5021975;28;20028;-67
2021/07/07 00:26:07;;;;;;;9.75;8.10;;;;;;;;;;5025244;28;20147;-70
2021/07/07 00:28:33;;;;;;;9.88;8.88;;;;;;;;;;5017645;28;20030;-68
2021/07/07 00:30:59;;;;;;;10.02;8.57;;;;;;;;;;5019176;28;20057;-70
2021/07/07 00:33:25;;;;;;;11.57;8.77;;;;;;;;;;5016975;28;20033;-70
2021/07/07 00:35:51;;;;;;;10.15;8.60;;;;;;;;;;5016461;28;20038;-67
2021/07/07 00:38:18;;;;;;;8.98;8.07;;;;;;;;;;5014798;28;20026;-70
2021/07/07 00:40:45;;;;;;;9.10;8.20;;;;;;;;;;5018049;28;20033;-70
2021/07/07 00:43:13;;;;;;;9.73;8.27;;;;;;;;;;5014734;28;20048;-68
2021/07/07 00:45:39;;;;;;;10.98;8.52;;;;;;;;;;5018395;28;20022;-70
2021/07/07 00:48:07;;;;;;;12.05;8.55;;;;;;;;;;5019561;28;20487;-69
2021/07/07 00:50:33;;;;;;;10.15;8.75;;;;;;;;;;5024121;28;20399;-67
2021/07/07 00:52:59;;;;;;;10.02;8.30;;;;;;;;;;5017996;28;20101;-68
2021/07/07 00:55:25;;;;;;;10.70;8.80;;;;;;;;;;5025440;28;20482;-68
2021/07/07 00:57:54;;;;;;;9.32;8.00;;;;;;;;;;5027133;28;20025;-70
2021/07/07 01:00:24;;;;;;;9.80;8.13;;;;;;;;;;5022929;28;20163;-70
2021/07/07 01:02:52;;;;;;;9.48;8.43;;;;;;;;;;5025650;28;20045;-67
2021/07/07 01:05:18;;;;;;;13.35;8.48;;;;;;;;;;5024813;28;20036;-70
2021/07/07 01:07:44;;;;;;;10.93;8.18;;;;;;;;;;5021336;28;20046;-69
2021/07/07 01:10:14;;;;;;;11.27;8.60;;;;;;;;;;5017591;28;20038;-70
2021/07/07 01:12:43;;;;;;;11.35;8.25;;;;;;;;;;5019102;28;20045;-70
2021/07/07 01:15:12;;;;;;;10.82;8.35;;;;;;;;;;5015641;28;20033;-71
2021/07/07 01:17:38;;;;;;;11.52;8.32;;;;;;;;;;5021399;28;20422;-70
2021/07/07 01:20:07;;;;;;;10.88;8.75;;;;;;;;;;5019222;28;20037;-70
2021/07/07 01:22:35;;;;;;;11.57;8.48;;;;;;;;;;5023953;28;20029;-69
2021/07/07 01:25:02;;;;;;;13.30;8.68;;;;;;;;;;5023435;28;20025;-69
2021/07/07 01:27:30;;;;;;;9.68;8.38;;;;;;;;;;5020107;28;20033;-70
2021/07/07 01:29:57;;;;;;;9.48;8.45;;;;;;;;;;5022744;28;20021;-70
2021/07/07 01:32:23;;;;;;;11.32;8.38;;;;;;;;;;5025101;28;20029;-69
2021/07/07 01:34:50;;;;;;;10.02;8.55;;;;;;;;;;5019954;28;20104;-69
2021/07/07 01:37:17;;;;;;;9.25;8.35;;;;;;;;;;5036321;28;20045;-70
2021/07/07 01:39:43;;;;;;;10.20;9.13;;;;;;;;;;5023904;28;20037;-68
2021/07/07 01:42:09;;;;;;;10.95;8.70;;;;;;;;;;5022559;28;20079;-69
2021/07/07 01:44:38;;;;;;;9.63;8.60;;;;;;;;;;5019022;28;20527;-68
2021/07/07 01:47:06;;;;;;;13.80;8.70;;;;;;;;;;5023613;28;20033;-66
2021/07/07 01:49:32;;;;;;;8.98;8.00;;;;;;;;;;5019192;28;20021;-68
2021/07/07 01:51:58;;;;;;;9.50;8.05;;;;;;;;;;5020860;28;20080;-69
2021/07/07 01:54:24;;;;;;;11.35;8.95;;;;;;;;;;5019163;28;20033;-69
2021/07/07 01:56:50;;;;;;;9.65;8.60;;;;;;;;;;5017646;28;20034;-69
2021/07/07 01:59:16;;;;;;;10.07;8.73;;;;;;;;;;5018458;28;20026;-67
2021/07/07 02:01:42;;;;;;;10.65;9.02;;;;;;;;;;5016984;28;20026;-69
2021/07/07 02:04:08;;;;;;;11.88;8.75;;;;;;;;;;5022815;28;20022;-68
2021/07/07 02:06:35;;;;;;;13.80;8.93;;;;;;;;;;5016268;28;20065;-69
2021/07/07 02:09:01;;;;;;;10.80;8.27;;;;;;;;;;5019394;28;20043;-69
2021/07/07 02:11:27;;;;;;;11.90;8.80;;;;;;;;;;5024940;28;20040;-70
2021/07/07 02:13:53;;;;;;;13.93;8.88;;;;;;;;;;5024035;28;20049;-69
2021/07/07 02:16:19;;;;;;;12.32;8.75;;;;;;;;;;5027156;28;20045;-70
2021/07/07 02:18:45;;;;;;;12.55;8.40;;;;;;;;;;5018917;28;20064;-68
2021/07/07 02:21:11;;;;;;;11.45;8.40;;;;;;;;;;5020058;28;20078;-68
2021/07/07 02:23:38;;;;;;;13.55;8.70;;;;;;;;;;5014998;28;20057;-70
2021/07/07 02:26:04;;;;;;;11.85;8.65;;;;;;;;;;5016098;28;20025;-70
2021/07/07 02:28:30;;;;;;;10.82;8.98;;;;;;;;;;5014657;28;20155;-68
2021/07/07 02:30:57;;;;;;;10.65;8.55;;;;;;;;;;5026637;28;20036;-69
2021/07/07 02:33:24;;;;;;;11.10;8.60;;;;;;;;;;5022176;28;20032;-70
2021/07/07 02:35:53;;;;;;;11.23;8.25;;;;;;;;;;5019174;28;20052;-69
2021/07/07 02:38:21;;;;;;;10.98;9.02;;;;;;;;;;5021205;28;20502;-70
2021/07/07 02:40:47;;;;;;;12.77;8.85;;;;;;;;;;5018929;28;20030;-70
2021/07/07 02:43:27;;;;;;;12.48;8.77;;;;;;;;;;5023297;28;20113;-69
2021/07/07 02:45:54;;;;;;;13.25;9.23;;;;;;;;;;5019345;28;20032;-70
2021/07/07 02:48:20;;;;;;;11.15;8.35;;;;;;;;;;5015862;28;20376;-69
2021/07/07 02:50:47;;;;;;;11.55;8.40;;;;;;;;;;5020559;28;20037;-69
2021/07/07 02:53:14;;;;;;;13.35;9.00;;;;;;;;;;5020226;28;20056;-69
2021/07/07 02:55:43;;;;;;;11.32;8.35;;;;;;;;;;5020367;28;20041;-69
2021/07/07 02:58:09;;;;;;;9.55;8.50;;;;;;;;;;5027682;28;20474;-70
2021/07/07 03:00:39;;;;;;;12.15;8.07;;;;;;;;;;5021638;28;20117;-70
2021/07/07 03:03:08;;;;;;;9.18;8.25;;;;;;;;;;5018289;28;20017;-70
2021/07/07 03:05:35;;;;;;;10.38;8.27;;;;;;;;;;5019106;28;20024;-67
2021/07/07 03:08:01;;;;;;;10.82;7.50;;;;;;;;;;5016961;28;20056;-67
2021/07/07 03:10:28;;;;;;;12.68;8.35;;;;;;;;;;5022256;28;20057;-69
2021/07/07 03:12:59;;;;;;;9.20;7.47;;;;;;;;;;5023511;28;20030;-69
2021/07/07 03:15:25;;;;;;;11.13;8.40;;;;;;;;;;5014737;28;20077;-68
2021/07/07 03:17:53;;;;;;;10.98;7.88;;;;;;;;;;5021442;28;20512;-68
2021/07/07 03:20:19;;;;;;;10.63;8.52;;;;;;;;;;5017410;28;20743;-69
2021/07/07 03:22:45;;;;;;;14.88;7.93;;;;;;;;;;5017222;28;20022;-68
2021/07/07 03:25:11;;;;;;;16.42;7.97;;;;;;;;;;5020439;28;20091;-69
2021/07/07 03:27:38;;;;;;;16.77;8.25;;;;;;;;;;5026950;28;20112;-69
2021/07/07 03:30:05;;;;;;;11.35;8.23;;;;;;;;;;5016947;28;20423;-69
2021/07/07 03:32:31;;;;;;;13.93;7.82;;;;;;;;;;5020088;28;20076;-69
2021/07/07 03:35:06;;;;;;;11.23;7.85;;;;;;;;;;5028905;28;20101;-69
2021/07/07 03:37:32;;;;;;;9.75;8.00;;;;;;;;;;5023866;28;20441;-67
2021/07/07 03:39:58;;;;;;;14.80;8.00;;;;;;;;;;5024519;28;20033;-68
2021/07/07 03:42:27;;;;;;;13.68;7.47;;;;;;;;;;5019226;28;20504;-68
2021/07/07 03:44:53;;;;;;;13.07;7.93;;;;;;;;;;5022069;28;20026;-68
2021/07/07 03:47:19;;;;;;;10.20;8.23;;;;;;;;;;5018465;28;20030;-70
2021/07/07 03:49:45;;;;;;;15.52;8.32;;;;;;;;;;5017325;28;20068;-70
2021/07/07 03:52:12;;;;;;;11.23;8.02;;;;;;;;;;5022923;28;20460;-70
2021/07/07 03:54:38;;;;;;;9.80;7.85;;;;;;;;;;5018186;28;20021;-69
2021/07/07 03:57:04;;;;;;;12.05;7.90;;;;;;;;;;5017913;28;20025;-68
2021/07/07 03:59:30;;;;;;;13.65;7.35;;;;;;;;;;5020138;28;20025;-66
2021/07/07 04:01:56;;;;;;;11.45;8.18;;;;;;;;;;5025370;28;20029;-70
2021/07/07 04:04:22;;;;;;;11.90;7.82;;;;;;;;;;5016315;28;20041;-70
2021/07/07 04:06:48;;;;;;;11.80;7.75;;;;;;;;;;5019699;28;20026;-68
2021/07/07 04:09:15;;;;;;;12.18;7.72;;;;;;;;;;5020295;28;20021;-68
2021/07/07 04:11:41;;;;;;;14.10;8.35;;;;;;;;;;5015908;28;20049;-65
2021/07/07 04:14:22;;;;;;;13.02;8.10;;;;;;;;;;5020361;28;20045;-90
2021/07/07 04:16:48;;;;;;;11.32;7.95;;;;;;;;;;5017505;28;20493;-65
2021/07/07 04:19:14;;;;;;;12.10;7.68;;;;;;;;;;5016042;28;20037;-70
2021/07/07 04:21:42;;;;;;;11.60;8.25;;;;;;;;;;5011465;28;20112;-69
2021/07/07 04:24:08;;;;;;;19.40;8.23;;;;;;;;;;5013939;28;20164;-64
2021/07/07 04:26:34;;;;;;;16.83;8.20;;;;;;;;;;5016588;28;20501;-69
2021/07/07 04:29:00;;;;;;;9.02;7.80;;;;;;;;;;5010833;28;20025;-74
2021/07/07 04:32:03;;;;;;;;;;;;;;;;;;;;;
2021/07/07 04:34:30;;;;;;;10.10;7.77;;;;;;;;;;5013072;28;20030;-72
2021/07/07 04:36:56;;;;;;;11.30;7.70;;;;;;;;;;5023603;28;20266;-69
2021/07/07 04:39:22;;;;;;;10.18;7.63;;;;;;;;;;5017819;28;20026;-77
2021/07/07 04:41:48;;;;;;;11.75;7.78;;;;;;;;;;5017326;28;20034;-69
2021/07/07 04:44:14;;;;;;;18.35;8.27;;;;;;;;;;5012620;28;20072;-69
2021/07/07 04:46:40;;;;;;;9.27;8.27;;;;;;;;;;5020314;28;20037;-69
2021/07/07 04:49:06;;;;;;;15.13;7.95;;;;;;;;;;5025517;28;20017;-68
2021/07/07 04:51:32;;;;;;;11.43;8.52;;;;;;;;;;5021873;28;20491;-68
2021/07/07 04:53:58;;;;;;;9.85;8.52;;;;;;;;;;5021340;28;20037;-68
2021/07/07 04:56:25;;;;;;;13.50;8.10;;;;;;;;;;5026134;28;20067;-67
2021/07/07 04:58:53;;;;;;;13.50;8.48;;;;;;;;;;5024808;28;20044;-68
2021/07/07 05:01:19;;;;;;;14.20;9.55;;;;;;;;;;5026404;28;20030;-68
2021/07/07 05:03:45;;;;;;;14.20;10.10;;;;;;;;;;5022765;28;20084;-69
2021/07/07 05:06:14;;;;;;;12.13;9.45;;;;;;;;;;5016208;28;20040;-69
2021/07/07 05:08:40;;;;;;;14.23;9.40;;;;;;;;;;5020994;28;20441;-69
2021/07/07 05:11:06;;;;;;;14.43;9.43;;;;;;;;;;5015251;28;20029;-69
2021/07/07 05:13:32;;;;;;;15.25;9.93;;;;;;;;;;5015748;28;20542;-67
2021/07/07 05:15:59;;;;;;;18.27;10.57;;;;;;;;;;5020505;28;20474;-68
2021/07/07 05:18:25;;;;;;;17.00;9.98;;;;;;;;;;5030008;28;20040;-68
2021/07/07 05:20:51;;;;;;;36.42;10.50;;;;;;;;;;5021715;28;20041;-67
2021/07/07 05:24:01;;;;;;;24.48;10.05;;;;;;;;;;5014061;28;20115;-73
2021/07/07 05:26:27;;;;;;;18.08;8.73;;;;;;;;;;5013783;28;20038;-68
2021/07/07 05:28:54;;;;;;;13.55;8.10;;;;;;;;;;5021306;28;20060;-77
2021/07/07 05:31:22;;;;;;;10.93;7.40;;;;;;;;;;5020474;28;20038;-78
2021/07/07 05:33:53;;;;;;;10.90;7.95;;;;;;;;;;5020941;28;20026;-78
2021/07/07 05:36:22;;;;;;;12.02;7.63;;;;;;;;;;5018504;28;20080;-75
2021/07/07 05:38:53;;;;;;;10.10;8.00;;;;;;;;;;5015453;28;20092;-71
2021/07/07 05:41:25;;;;;;;14.77;8.02;;;;;;;;;;5022866;28;20026;-72
2021/07/07 05:43:54;;;;;;;63.23;10.17;;;;;;;;;;5024967;28;20025;-69
2021/07/07 05:46:20;;;;;;;21.15;8.68;;;;;;;;;;5019082;28;20034;-71
2021/07/07 05:48:47;;;;;;;11.40;7.60;;;;;;;;;;5019227;28;20475;-72
2021/07/07 05:51:15;;;;;;;23.92;8.43;;;;;;;;;;5018329;28;20041;-71
2021/07/07 05:54:00;;;;;;;58.00;9.98;;;;;;;;;;5013296;28;20503;-71
2021/07/07 05:56:26;;;;;;;12.52;7.47;;;;;;;;;;5014978;28;20486;-72
2021/07/07 05:58:52;;;;;;;11.63;6.90;;;;;;;;;;5024605;28;20028;-71
2021/07/07 06:01:18;;;;;;;14.00;7.60;;;;;;;;;;5025264;28;20091;-70
2021/07/07 06:03:49;;;;;;;13.25;7.82;;;;;;;;;;5024928;28;20513;-71
2021/07/07 06:06:20;;;;;;;12.77;8.02;;;;;;;;;;5025320;28;20037;-70
2021/07/07 06:08:49;;;;;;;14.00;7.65;;;;;;;;;;5016030;28;20045;-75
2021/07/07 06:11:16;;;;;;;13.90;8.15;;;;;;;;;;5026978;28;20045;-74
2021/07/07 06:13:52;;;;;;;;;;;;;;;;;;;;;
2021/07/07 06:16:18;;;;;;;10.52;7.32;;;;;;;;;;5019268;28;20072;-69
2021/07/07 06:19:16;;;;;;;13.38;8.00;;;;;;;;;;5028250;28;20038;-73
2021/07/07 06:22:08;;;;;;;9.68;7.25;;;;;;;;;;5015262;28;20125;-75
2021/07/07 06:24:41;;;;;;;10.75;7.38;;;;;;;;;;5017335;28;20113;-72
2021/07/07 06:27:07;;;;;;;18.65;8.32;;;;;;;;;;5019669;28;20033;-75
2021/07/07 06:29:33;;;;;;;11.43;7.60;;;;;;;;;;5024708;28;20075;-73
2021/07/07 06:31:59;;;;;;;27.50;9.38;;;;;;;;;;5020953;28;20030;-71
2021/07/07 06:34:25;;;;;;;12.75;8.15;;;;;;;;;;5020397;28;20030;-71
2021/07/07 06:36:51;;;;;;;16.25;8.73;;;;;;;;;;5024282;28;20372;-73
2021/07/07 06:39:17;;;;;;;26.13;8.85;;;;;;;;;;5026293;28;20275;-72
2021/07/07 06:41:43;;;;;;;12.32;8.60;;;;;;;;;;5021779;28;20507;-73
2021/07/07 06:44:12;;;;;;;14.65;8.32;;;;;;;;;;5019124;28;20028;-72
2021/07/07 06:46:38;;;;;;;27.17;9.15;;;;;;;;;;5014666;28;20018;-74
2021/07/07 06:49:04;;;;;;;27.77;9.18;;;;;;;;;;5018897;28;20408;-73
2021/07/07 06:51:31;;;;;;;23.10;9.18;;;;;;;;;;5021518;28;20092;-74
2021/07/07 06:53:57;;;;;;;14.70;8.60;;;;;;;;;;5019806;28;20089;-73
2021/07/07 06:56:23;;;;;;;30.05;9.18;;;;;;;;;;5023378;28;20117;-74
2021/07/07 06:58:49;;;;;;;22.60;8.85;;;;;;;;;;5023431;28;20021;-77
2021/07/07 07:01:15;;;;;;;16.98;8.95;;;;;;;;;;5018956;28;20470;-73
2021/07/07 07:03:41;;;;;;;32.05;9.05;;;;;;;;;;5022000;28;20013;-68
2021/07/07 07:06:07;;;;;;;14.35;8.18;;;;;;;;;;5024517;28;20082;-69
2021/07/07 07:08:33;;;;;;;23.98;8.23;;;;;;;;;;5019181;28;20048;-72
2021/07/07 07:10:59;;;;;;;19.83;8.55;;;;;;;;;;5021134;28;20030;-71
2021/07/07 07:13:25;;;;;;;16.25;8.55;;;;;;;;;;5018797;28;20041;-69
2021/07/07 07:15:51;;;;;;;21.10;8.23;;;;;;;;;;5022684;28;20061;-70
2021/07/07 07:18:18;;;;;;;17.80;8.50;;;;;;;;;;5023355;28;20612;-68
2021/07/07 07:20:44;;;;;;;18.30;8.82;;;;;;;;;;5020793;28;20033;-69
2021/07/07 07:23:10;;;;;;;15.27;8.60;;;;;;;;;;5019885;28;20394;-76
2021/07/07 07:25:36;;;;;;;17.00;8.50;;;;;;;;;;5019836;28;20455;-73
2021/07/07 07:28:04;;;;;;;16.88;8.60;;;;;;;;;;5014534;28;20079;-73
2021/07/07 07:30:31;;;;;;;12.57;8.05;;;;;;;;;;5015537;28;20084;-74
2021/07/07 07:32:57;;;;;;;13.00;8.50;;;;;;;;;;5016882;28;20029;-72
2021/07/07 07:35:24;;;;;;;18.92;8.80;;;;;;;;;;5019229;28;20033;-72
2021/07/07 07:38:00;;;;;;;11.43;8.02;;;;;;;;;;5023193;28;20029;-74
2021/07/07 07:40:32;;;;;;;11.18;8.35;;;;;;;;;;5021163;28;20018;-76
2021/07/07 07:42:58;;;;;;;13.82;8.75;;;;;;;;;;5013681;28;20523;-73
2021/07/07 07:45:38;;;;;;;14.32;8.32;;;;;;;;;;5018080;28;20084;-71
2021/07/07 07:48:07;;;;;;;10.75;8.48;;;;;;;;;;5019820;28;20034;-73
2021/07/07 07:50:33;;;;;;;14.77;8.20;;;;;;;;;;5026829;28;20097;-74
2021/07/07 07:53:00;;;;;;;14.63;8.55;;;;;;;;;;5017921;28;20038;-72
2021/07/07 07:55:26;;;;;;;13.50;8.35;;;;;;;;;;5026596;28;20041;-74
2021/07/07 07:57:52;;;;;;;24.55;9.30;;;;;;;;;;5026750;28;20043;-70
2021/07/07 08:00:20;;;;;;;11.77;8.45;;;;;;;;;;5020847;28;20033;-72
2021/07/07 08:02:46;;;;;;;14.20;8.35;;;;;;;;;;5019227;28;20036;-73
2021/07/07 08:05:14;;;;;;;13.98;7.82;;;;;;;;;;5020853;28;20116;-68
2021/07/07 08:07:40;;;;;;;16.70;8.65;;;;;;;;;;5019481;28;20475;-74
2021/07/07 08:10:07;;;;;;;23.50;9.00;;;;;;;;;;5017698;28;20025;-67
2021/07/07 08:15:20;;;;;;;18.20;7.80;;;;;;;;;;5014176;28;20038;-72
2021/07/07 08:17:49;;;;;;;15.48;8.40;;;;;;;;;;5018510;28;20125;-74
2021/07/07 08:20:39;;;;;;;15.85;8.35;;;;;;;;;;5015827;28;20104;-77
2021/07/07 08:23:05;;;;;;;12.18;9.23;;;;;;;;;;5018192;28;20030;-72
2021/07/07 08:25:31;;;;;;;11.40;8.15;;;;;;;;;;5024431;28;20026;-78
2021/07/07 08:27:57;;;;;;;16.50;8.32;;;;;;;;;;5016460;28;20104;-75
2021/07/07 08:30:24;;;;;;;12.68;8.25;;;;;;;;;;5022414;28;20078;-68
2021/07/07 08:32:51;;;;;;;20.20;8.90;;;;;;;;;;5016031;28;20496;-76
2021/07/07 08:35:17;;;;;;;14.93;8.93;;;;;;;;;;5013505;28;20033;-75
2021/07/07 08:37:44;;;;;;;13.23;8.48;;;;;;;;;;5018746;28;20390;-74
2021/07/07 08:40:10;;;;;;;18.25;8.77;;;;;;;;;;5021878;28;20100;-74
2021/07/07 08:42:37;;;;;;;25.02;9.73;;;;;;;;;;5017420;28;20451;-71
2021/07/07 08:45:07;;;;;;;16.20;8.98;;;;;;;;;;5016077;28;20608;-73
2021/07/07 08:47:37;;;;;;;14.82;8.80;;;;;;;;;;5027122;28;20147;-73
2021/07/07 08:50:07;;;;;;;13.93;8.45;;;;;;;;;;5018596;28;20510;-74
2021/07/07 08:53:03;;;;;;;22.35;8.45;;;;;;;;;;5020105;28;20397;-70
2021/07/07 08:55:37;;;;;;;12.50;8.38;;;;;;;;;;5012251;28;20041;-71
2021/07/07 08:58:45;;;;;;;15.93;7.97;;;;;;;;;;5017921;28;20472;-71
2021/07/07 09:01:12;;;;;;;10.43;8.30;;;;;;;;;;4948676;28;20086;-71
2021/07/07 09:03:46;;;;;;;15.63;8.82;;;;;;;;;;4951450;28;20067;-74
2021/07/07 09:06:13;;;;;;;15.73;8.60;;;;;;;;;;4952260;28;20043;-78
2021/07/07 09:08:46;;;;;;;19.58;8.50;;;;;;;;;;4949274;28;20030;-76
2021/07/07 09:11:22;;;;;;;21.80;9.02;;;;;;;;;;4962672;28;20045;-82
2021/07/07 09:14:07;;;;;;;20.52;8.73;;;;;;;;;;4963839;28;20797;-81
2021/07/07 09:16:44;;;;;;;12.38;8.65;;;;;;;;;;4949925;28;20560;-72
2021/07/07 09:19:20;;;;;;;56.83;11.20;;;;;;;;;;4958464;28;20154;-86
2021/07/07 09:21:51;;;;;;;16.35;9.30;;;;;;;;;;4959677;28;20077;-77
2021/07/07 09:24:24;;;;;;;17.70;9.15;;;;;;;;;;4948850;28;20493;-78
2021/07/07 09:27:01;;;;;;;17.23;9.60;;;;;;;;;;4959856;28;20078;-76
2021/07/07 09:29:33;;;;;;;15.00;8.30;;;;;;;;;;4961205;28;20700;-78
2021/07/07 09:32:12;;;;;;;14.13;8.52;;;;;;;;;;4995283;28;20492;-76
2021/07/07 09:34:39;;;;;;;11.52;8.52;;;;;;;;;;5027107;28;20026;-75
2021/07/07 09:37:06;;;;;;;11.73;8.73;;;;;;;;;;5024843;28;20521;-69
2021/07/07 09:39:33;;;;;;;14.85;8.57;;;;;;;;;;5020737;28;20029;-69
2021/07/07 09:41:59;;;;;;;13.43;9.00;;;;;;;;;;5024371;28;20397;-70
2021/07/07 09:44:29;;;;;;;15.80;9.18;;;;;;;;;;5024187;28;20083;-79
2021/07/07 09:47:24;;;;;;;14.82;8.80;;;;;;;;;;5019298;28;20029;-72
2021/07/07 09:49:50;;;;;;;11.35;9.30;;;;;;;;;;5027601;28;20034;-70
2021/07/07 09:52:29;;;;;;;15.43;9.38;;;;;;;;;;5017523;28;20442;-71
2021/07/07 09:54:56;;;;;;;12.50;9.00;;;;;;;;;;5014066;28;20153;-73
2021/07/07 09:57:23;;;;;;;11.10;8.82;;;;;;;;;;5019080;28;20034;-74
2021/07/07 09:59:49;;;;;;;12.00;9.23;;;;;;;;;;5024149;28;20023;-73
2021/07/07 10:02:15;;;;;;;127.47;14.52;;;;;;;;;;5018504;28;20034;-75
2021/07/07 10:04:45;;;;;;;18.33;9.27;;;;;;;;;;5020092;28;20041;-81
2021/07/07 10:07:14;;;;;;;14.98;9.02;;;;;;;;;;5020747;28;20029;-81
2021/07/07 10:09:44;;;;;;;11.73;9.00;;;;;;;;;;5018852;28;20088;-78
2021/07/07 10:12:10;;;;;;;11.45;8.82;;;;;;;;;;5022589;28;20031;-74
2021/07/07 10:14:37;;;;;;;11.88;8.35;;;;;;;;;;5023599;28;20044;-72
2021/07/07 10:17:03;;;;;;;11.05;8.75;;;;;;;;;;5015528;28;20387;-71
2021/07/07 10:19:29;;;;;;;10.27;9.15;;;;;;;;;;5020539;28;20026;-71
2021/07/07 10:21:56;;;;;;;12.13;9.00;;;;;;;;;;5020473;28;20053;-73
2021/07/07 10:24:27;;;;;;;13.95;9.10;;;;;;;;;;5018180;28;20030;-70
2021/07/07 10:26:58;;;;;;;22.17;9.40;;;;;;;;;;5017525;28;20033;-77
2021/07/07 10:29:25;;;;;;;16.92;9.23;;;;;;;;;;5018557;28;20096;-74
2021/07/07 10:31:53;;;;;;;13.05;8.60;;;;;;;;;;5019678;28;20112;-78
2021/07/07 10:34:20;;;;;;;13.50;9.30;;;;;;;;;;5019812;28;20109;-78
2021/07/07 10:36:47;;;;;;;14.40;9.10;;;;;;;;;;5019254;28;20034;-67
2021/07/07 10:39:14;;;;;;;16.15;9.57;;;;;;;;;;5019036;28;20032;-69
2021/07/07 10:41:44;;;;;;;16.90;9.10;;;;;;;;;;5019931;28;20567;-73
2021/07/07 10:44:11;;;;;;;14.00;8.82;;;;;;;;;;5024442;28;20092;-72
2021/07/07 10:46:50;;;;;;;11.80;9.20;;;;;;;;;;5020721;28;20032;-70
2021/07/07 10:49:19;;;;;;;14.35;9.05;;;;;;;;;;5016180;28;20026;-75
2021/07/07 10:51:47;;;;;;;15.73;9.88;;;;;;;;;;5020292;28;20041;-75
2021/07/07 10:54:22;;;;;;;15.63;10.07;;;;;;;;;;5016551;28;20041;-78
2021/07/07 10:56:55;;;;;;;13.90;9.27;;;;;;;;;;5016923;28;20495;-74
2021/07/07 10:59:21;;;;;;;;;;;;;;;;;;5015922;28;20033;-73
2021/07/07 11:01:57;;;;;;;16.20;10.10;;;;;;;;;;5021714;28;19909;-71
2021/07/07 11:04:33;;;;;;;13.65;9.45;;;;;;;;;;5019836;28;20032;-73
2021/07/07 11:07:19;;;;;;;84.45;13.52;;;;;;;;;;5025471;28;20025;-76
2021/07/07 11:09:45;;;;;;;16.25;9.30;;;;;;;;;;5015658;28;20045;-73
2021/07/07 11:12:16;;;;;;;12.23;9.65;;;;;;;;;;5022460;28;20057;-69
2021/07/07 11:14:57;;;;;;;11.90;9.30;;;;;;;;;;5022823;28;20021;-68
2021/07/07 11:17:24;;;;;;;20.08;10.00;;;;;;;;;;5024031;28;20058;-71
2021/07/07 11:19:51;;;;;;;11.65;9.52;;;;;;;;;;5019105;28;20468;-71
2021/07/07 11:22:18;;;;;;;13.57;9.02;;;;;;;;;;5027829;28;20068;-72
2021/07/07 11:24:45;;;;;;;12.57;9.10;;;;;;;;;;5019324;28;20033;-72
2021/07/07 11:27:11;;;;;;;13.85;9.32;;;;;;;;;;5021977;28;20017;-72
2021/07/07 11:29:37;;;;;;;10.10;8.75;;;;;;;;;;5022397;28;20060;-72
2021/07/07 11:32:21;;;;;;;10.20;9.10;;;;;;;;;;5020907;28;20022;-71
2021/07/07 11:35:03;;;;;;;13.82;9.40;;;;;;;;;;5025754;28;20028;-71
2021/07/07 11:37:31;;;;;;;14.02;9.40;;;;;;;;;;5022056;28;20119;-71
2021/07/07 11:40:20;;;;;;;19.23;9.18;;;;;;;;;;5018946;28;20048;-68
2021/07/07 11:42:57;;;;;;;18.52;9.95;;;;;;;;;;4954547;28;20117;-69
2021/07/07 11:45:28;;;;;;;13.88;8.55;;;;;;;;;;4952377;28;20053;-70
2021/07/07 11:47:59;;;;;;;10.85;9.32;;;;;;;;;;4955029;28;20370;-71
2021/07/07 11:50:26;;;;;;;13.25;9.15;;;;;;;;;;4960643;28;20080;-71
2021/07/07 11:52:56;;;;;;;11.27;8.48;;;;;;;;;;4965112;28;20114;-71
2021/07/07 11:55:40;;;;;;;10.43;8.75;;;;;;;;;;4953876;28;20027;-70
2021/07/07 11:58:06;;;;;;;12.85;8.77;;;;;;;;;;4961363;28;20061;-70
2021/07/07 12:00:36;;;;;;;11.63;8.77;;;;;;;;;;4957306;28;20038;-72
2021/07/07 12:03:02;;;;;;;40.55;10.05;;;;;;;;;;4962236;28;20027;-72
2021/07/07 12:05:36;;;;;;;21.88;9.52;;;;;;;;;;4956001;28;20034;-72
2021/07/07 12:08:18;;;;;;;10.48;8.57;;;;;;;;;;4957773;28;20034;-71
2021/07/07 12:10:44;;;;;;;13.30;9.20;;;;;;;;;;4963823;28;20019;-70
2021/07/07 12:13:19;;;;;;;28.80;9.85;;;;;;;;;;4959827;28;20098;-72
2021/07/07 12:15:46;;;;;;;12.73;9.15;;;;;;;;;;4959948;28;20429;-69
2021/07/07 12:18:25;;;;;;;13.55;9.15;;;;;;;;;;4962456;28;20074;-71
2021/07/07 12:20:51;;;;;;;14.05;9.45;;;;;;;;;;5019394;28;20041;-71
2021/07/07 12:23:20;;;;;;;11.07;9.18;;;;;;;;;;5029091;28;20036;-76
2021/07/07 12:25:48;;;;;;;10.85;8.90;;;;;;;;;;5016024;28;20073;-71
2021/07/07 12:28:14;;;;;;;12.10;8.85;;;;;;;;;;5019056;28;20022;-72
2021/07/07 12:30:41;;;;;;;45.17;10.70;;;;;;;;;;5015312;28;20120;-68
2021/07/07 12:33:07;;;;;;;12.52;9.07;;;;;;;;;;5018138;28;20148;-71
2021/07/07 12:35:33;;;;;;;11.35;8.43;;;;;;;;;;5013249;28;20112;-72
2021/07/07 12:37:59;;;;;;;16.92;8.98;;;;;;;;;;5018848;28;20090;-72
2021/07/07 12:40:25;;;;;;;11.40;8.60;;;;;;;;;;5015923;28;20026;-71
2021/07/07 12:42:54;;;;;;;14.57;8.88;;;;;;;;;;5019534;28;20033;-69
2021/07/07 12:45:20;;;;;;;12.90;8.43;;;;;;;;;;5021806;28;20096;-70
2021/07/07 12:48:02;;;;;;;11.80;9.05;;;;;;;;;;5020295;28;20471;-72
2021/07/07 12:50:33;;;;;;;12.82;7.97;;;;;;;;;;5025667;28;20462;-70
2021/07/07 12:52:59;;;;;;;12.98;8.75;;;;;;;;;;5014354;28;20105;-69
2021/07/07 12:55:29;;;;;;;10.05;8.82;;;;;;;;;;5018407;28;20029;-68
2021/07/07 12:58:05;;;;;;;17.25;8.77;;;;;;;;;;5016623;28;20084;-71
2021/07/07 13:00:31;;;;;;;13.13;8.85;;;;;;;;;;5025986;28;20017;-70
2021/07/07 13:03:05;;;;;;;10.65;8.68;;;;;;;;;;5016281;28;20026;-69
2021/07/07 13:05:34;;;;;;;13.85;8.80;;;;;;;;;;5016777;28;20022;-72
2021/07/07 13:08:01;;;;;;;14.13;8.43;;;;;;;;;;5019221;28;20033;-72
2021/07/07 13:10:27;;;;;;;19.73;8.75;;;;;;;;;;5017806;28;20079;-71
2021/07/07 13:12:54;;;;;;;12.02;8.65;;;;;;;;;;5019303;28;20029;-68
2021/07/07 13:15:20;;;;;;;11.40;9.57;;;;;;;;;;5014495;28;20034;-72
2021/07/07 13:18:06;;;;;;;15.48;8.68;;;;;;;;;;5027162;28;20427;-72
2021/07/07 13:20:32;;;;;;;14.18;9.15;;;;;;;;;;5022259;28;20116;-69
2021/07/07 13:23:02;;;;;;;13.25;8.98;;;;;;;;;;5023212;28;20061;-71
2021/07/07 13:25:29;;;;;;;17.50;8.93;;;;;;;;;;5015068;28;20033;-72
2021/07/07 13:27:55;;;;;;;14.20;8.68;;;;;;;;;;5015549;28;20104;-70
2021/07/07 13:30:28;;;;;;;10.85;8.85;;;;;;;;;;5021406;28;20037;-68
2021/07/07 13:32:55;;;;;;;14.23;9.13;;;;;;;;;;5016989;28;20503;-69
2021/07/07 13:35:21;;;;;;;14.13;9.38;;;;;;;;;;5027018;28;20383;-71
2021/07/07 13:37:48;;;;;;;16.75;9.00;;;;;;;;;;5024843;28;20033;-69
2021/07/07 13:40:18;;;;;;;11.98;8.45;;;;;;;;;;5019680;28;20055;-70
2021/07/07 13:42:45;;;;;;;13.23;8.48;;;;;;;;;;5025368;28;20029;-69
2021/07/07 13:45:12;;;;;;;15.35;8.52;;;;;;;;;;5012083;28;20033;-69
2021/07/07 13:47:38;;;;;;;30.27;9.43;;;;;;;;;;5016387;28;20552;-69
2021/07/07 13:50:05;;;;;;;17.15;8.98;;;;;;;;;;5021277;28;20080;-72
2021/07/07 13:52:32;;;;;;;10.25;8.63;;;;;;;;;;5019880;28;20061;-71
2021/07/07 13:54:58;;;;;;;10.52;8.40;;;;;;;;;;5013813;28;20095;-72
2021/07/07 13:57:24;;;;;;;9.85;8.70;;;;;;;;;;5018276;28;20092;-69
2021/07/07 13:59:50;;;;;;;52.85;10.43;;;;;;;;;;5020368;28;20060;-73
2021/07/07 14:02:17;;;;;;;13.02;8.43;;;;;;;;;;5022944;28;20547;-69
2021/07/07 14:04:43;;;;;;;12.65;8.30;;;;;;;;;;5017476;28;20379;-67
2021/07/07 14:07:09;;;;;;;11.75;8.30;;;;;;;;;;5020818;28;20034;-66
2021/07/07 14:09:35;;;;;;;9.18;8.27;;;;;;;;;;5022180;28;20034;-73
2021/07/07 14:12:02;;;;;;;11.40;8.32;;;;;;;;;;5020300;28;20538;-68
2021/07/07 14:14:35;;;;;;;9.35;8.25;;;;;;;;;;5015455;28;20042;-73
2021/07/07 14:17:01;;;;;;;18.90;8.90;;;;;;;;;;5027798;28;20096;-69
2021/07/07 14:19:27;;;;;;;17.67;8.50;;;;;;;;;;5019362;28;20073;-73
2021/07/07 14:21:54;;;;;;;13.98;8.90;;;;;;;;;;5018815;28;20033;-72
2021/07/07 14:24:20;;;;;;;12.27;8.57;;;;;;;;;;5018738;28;20026;-68
2021/07/07 14:26:46;;;;;;;9.40;8.43;;;;;;;;;;5022852;28;20117;-71
2021/07/07 14:29:12;;;;;;;25.00;9.80;;;;;;;;;;5024645;28;20475;-70
2021/07/07 14:31:38;;;;;;;12.93;8.70;;;;;;;;;;5020163;28;20048;-70
2021/07/07 14:34:04;;;;;;;17.05;8.60;;;;;;;;;;5016156;28;20033;-73
2021/07/07 14:36:33;;;;;;;10.32;8.40;;;;;;;;;;5030284;28;20037;-73
2021/07/07 14:38:59;;;;;;;10.02;8.98;;;;;;;;;;5021511;28;20053;-69
2021/07/07 14:41:30;;;;;;;14.02;8.85;;;;;;;;;;5014653;28;20025;-67
2021/07/07 14:43:57;;;;;;;12.48;8.82;;;;;;;;;;5020064;28;20065;-66
2021/07/07 14:46:23;;;;;;;11.93;9.60;;;;;;;;;;5016890;28;20061;-73